sensor_id;sensor_type;location;lat;lon;timestamp;temperature;humidity
51035;DHT22;37062;52.546;13.230;2023-02-13T00:01:14;10.70;99.90
51035;DHT22;37062;52.546;13.230;2023-02-13T00:03:42;10.60;99.90
51035;DHT22;37062;52.546;13.230;2023-02-13T00:06:10;10.50;99.90
51035;DHT22;37062;52.546;13.230;2023-02-13T00:08:38;10.60;99.90
51035;DHT22;37062;52.546;13.230;2023-02-13T00:11:08;10.60;99.90
51035;DHT22;37062;52.546;13.230;2023-02-13T00:13:36;10.70;99.90
51035;DHT22;37062;52.546;13.230;2023-02-13T00:16:04;10.70;99.90
51035;DHT22;37062;52.546;13.230;2023-02-13T00:18:35;10.70;99.90
51035;DHT22;37062;52.546;13.230;2023-02-13T00:21:05;10.70;99.90
51035;DHT22;37062;52.546;13.230;2023-02-13T00:23:36;10.70;99.90
51035;DHT22;37062;52.546;13.230;2023-02-13T00:26:06;10.60;99.90
51035;DHT22;37062;52.546;13.230;2023-02-13T00:28:36;10.60;99.90
51035;DHT22;37062;52.546;13.230;2023-02-13T00:31:08;10.60;99.90
51035;DHT22;37062;52.546;13.230;2023-02-13T00:33:37;10.50;99.90
51035;DHT22;37062;52.546;13.230;2023-02-13T00:36:07;10.50;99.90
51035;DHT22;37062;52.546;13.230;2023-02-13T00:38:37;10.60;99.90
51035;DHT22;37062;52.546;13.230;2023-02-13T00:41:07;10.60;99.90
51035;DHT22;37062;52.546;13.230;2023-02-13T00:43:37;10.60;99.90
51035;DHT22;37062;52.546;13.230;2023-02-13T00:46:05;10.50;99.90
51035;DHT22;37062;52.546;13.230;2023-02-13T00:48:34;10.50;99.90
51035;DHT22;37062;52.546;13.230;2023-02-13T00:51:05;10.60;99.90
51035;DHT22;37062;52.546;13.230;2023-02-13T00:53:34;10.60;99.90
51035;DHT22;37062;52.546;13.230;2023-02-13T00:56:03;10.60;99.90
51035;DHT22;37062;52.546;13.230;2023-02-13T00:58:31;10.60;99.90
51035;DHT22;37062;52.546;13.230;2023-02-13T01:01:01;10.60;99.90
51035;DHT22;37062;52.546;13.230;2023-02-13T01:03:30;10.60;99.90
51035;DHT22;37062;52.546;13.230;2023-02-13T01:05:58;10.60;99.90
51035;DHT22;37062;52.546;13.230;2023-02-13T01:08:26;10.60;99.90
51035;DHT22;37062;52.546;13.230;2023-02-13T01:10:55;10.50;99.90
51035;DHT22;37062;52.546;13.230;2023-02-13T01:13:24;10.50;99.90
51035;DHT22;37062;52.546;13.230;2023-02-13T01:15:53;10.50;99.90
51035;DHT22;37062;52.546;13.230;2023-02-13T01:18:22;10.40;99.90
51035;DHT22;37062;52.546;13.230;2023-02-13T01:20:59;10.40;99.90
51035;DHT22;37062;52.546;13.230;2023-02-13T01:23:31;10.40;99.90
51035;DHT22;37062;52.546;13.230;2023-02-13T01:25:59;10.40;99.90
51035;DHT22;37062;52.546;13.230;2023-02-13T01:28:28;10.40;99.90
51035;DHT22;37062;52.546;13.230;2023-02-13T01:30:57;10.40;99.90
51035;DHT22;37062;52.546;13.230;2023-02-13T01:33:28;10.40;99.90
51035;DHT22;37062;52.546;13.230;2023-02-13T01:35:56;10.40;99.90
51035;DHT22;37062;52.546;13.230;2023-02-13T01:38:26;10.40;99.90
51035;DHT22;37062;52.546;13.230;2023-02-13T01:40:55;10.40;99.90
51035;DHT22;37062;52.546;13.230;2023-02-13T01:43:29;10.40;99.90
51035;DHT22;37062;52.546;13.230;2023-02-13T01:46:10;10.30;99.90
51035;DHT22;37062;52.546;13.230;2023-02-13T01:48:40;10.30;99.90
51035;DHT22;37062;52.546;13.230;2023-02-13T01:51:12;10.30;99.90
51035;DHT22;37062;52.546;13.230;2023-02-13T01:53:44;10.20;99.90
51035;DHT22;37062;52.546;13.230;2023-02-13T01:56:18;10.20;99.90
51035;DHT22;37062;52.546;13.230;2023-02-13T01:58:51;10.20;99.90
51035;DHT22;37062;52.546;13.230;2023-02-13T02:01:21;10.30;99.90
51035;DHT22;37062;52.546;13.230;2023-02-13T02:03:54;10.30;99.90
51035;DHT22;37062;52.546;13.230;2023-02-13T02:06:33;10.40;99.90
51035;DHT22;37062;52.546;13.230;2023-02-13T02:09:06;10.40;99.90
51035;DHT22;37062;52.546;13.230;2023-02-13T02:11:41;10.40;99.90
51035;DHT22;37062;52.546;13.230;2023-02-13T02:14:13;10.40;99.90
51035;DHT22;37062;52.546;13.230;2023-02-13T02:16:42;10.40;99.90
51035;DHT22;37062;52.546;13.230;2023-02-13T02:19:15;10.40;99.90
51035;DHT22;37062;52.546;13.230;2023-02-13T02:22:00;10.50;99.90
51035;DHT22;37062;52.546;13.230;2023-02-13T02:28:03;10.50;99.90
51035;DHT22;37062;52.546;13.230;2023-02-13T02:34:08;10.50;99.90
51035;DHT22;37062;52.546;13.230;2023-02-13T02:36:51;10.40;99.90
51035;DHT22;37062;52.546;13.230;2023-02-13T02:39:29;10.40;99.90
51035;DHT22;37062;52.546;13.230;2023-02-13T02:42:06;10.30;99.90
51035;DHT22;37062;52.546;13.230;2023-02-13T02:44:42;10.30;99.90
51035;DHT22;37062;52.546;13.230;2023-02-13T02:47:19;10.30;99.90
51035;DHT22;37062;52.546;13.230;2023-02-13T02:50:15;10.40;99.90
51035;DHT22;37062;52.546;13.230;2023-02-13T02:52:50;10.30;99.90
51035;DHT22;37062;52.546;13.230;2023-02-13T02:55:31;10.30;99.90
51035;DHT22;37062;52.546;13.230;2023-02-13T02:58:05;10.30;99.90
51035;DHT22;37062;52.546;13.230;2023-02-13T03:00:58;10.30;99.90
51035;DHT22;37062;52.546;13.230;2023-02-13T03:03:46;10.30;99.90
51035;DHT22;37062;52.546;13.230;2023-02-13T03:06:36;10.30;99.90
51035;DHT22;37062;52.546;13.230;2023-02-13T03:09:10;10.30;99.90
51035;DHT22;37062;52.546;13.230;2023-02-13T03:11:58;10.30;99.90
51035;DHT22;37062;52.546;13.230;2023-02-13T03:14:53;10.30;99.90
51035;DHT22;37062;52.546;13.230;2023-02-13T03:17:21;10.20;99.90
51035;DHT22;37062;52.546;13.230;2023-02-13T03:20:19;10.20;99.90
51035;DHT22;37062;52.546;13.230;2023-02-13T03:23:11;10.20;99.90
51035;DHT22;37062;52.546;13.230;2023-02-13T03:26:02;10.20;99.90
51035;DHT22;37062;52.546;13.230;2023-02-13T03:28:37;10.30;99.90
51035;DHT22;37062;52.546;13.230;2023-02-13T03:31:30;10.20;99.90
51035;DHT22;37062;52.546;13.230;2023-02-13T03:34:02;10.30;99.90
51035;DHT22;37062;52.546;13.230;2023-02-13T03:36:39;10.30;99.90
51035;DHT22;37062;52.546;13.230;2023-02-13T03:39:39;10.20;99.90
51035;DHT22;37062;52.546;13.230;2023-02-13T03:42:12;10.20;99.90
51035;DHT22;37062;52.546;13.230;2023-02-13T03:44:48;10.20;99.90
51035;DHT22;37062;52.546;13.230;2023-02-13T03:47:39;10.20;99.90
51035;DHT22;37062;52.546;13.230;2023-02-13T03:50:09;10.20;99.90
51035;DHT22;37062;52.546;13.230;2023-02-13T03:52:41;10.20;99.90
51035;DHT22;37062;52.546;13.230;2023-02-13T03:55:13;10.20;99.90
51035;DHT22;37062;52.546;13.230;2023-02-13T03:58:04;10.20;99.90
51035;DHT22;37062;52.546;13.230;2023-02-13T04:00:53;10.20;99.90
51035;DHT22;37062;52.546;13.230;2023-02-13T04:03:27;10.20;99.90
51035;DHT22;37062;52.546;13.230;2023-02-13T04:06:00;10.20;99.90
51035;DHT22;37062;52.546;13.230;2023-02-13T04:08:29;10.20;99.90
51035;DHT22;37062;52.546;13.230;2023-02-13T04:11:05;10.10;99.90
51035;DHT22;37062;52.546;13.230;2023-02-13T04:13:38;10.10;99.90
51035;DHT22;37062;52.546;13.230;2023-02-13T04:16:11;10.00;99.90
51035;DHT22;37062;52.546;13.230;2023-02-13T04:18:42;10.10;99.90
51035;DHT22;37062;52.546;13.230;2023-02-13T04:21:11;10.10;99.90
51035;DHT22;37062;52.546;13.230;2023-02-13T04:23:39;10.00;99.90
51035;DHT22;37062;52.546;13.230;2023-02-13T04:26:15;10.00;99.90
51035;DHT22;37062;52.546;13.230;2023-02-13T04:28:44;10.00;99.90
51035;DHT22;37062;52.546;13.230;2023-02-13T04:31:12;10.00;99.90
51035;DHT22;37062;52.546;13.230;2023-02-13T04:33:41;10.10;99.90
51035;DHT22;37062;52.546;13.230;2023-02-13T04:36:09;10.10;99.90
51035;DHT22;37062;52.546;13.230;2023-02-13T04:38:37;10.00;99.90
51035;DHT22;37062;52.546;13.230;2023-02-13T04:41:05;10.10;99.90
51035;DHT22;37062;52.546;13.230;2023-02-13T04:43:35;10.10;99.90
51035;DHT22;37062;52.546;13.230;2023-02-13T04:46:03;10.10;99.90
51035;DHT22;37062;52.546;13.230;2023-02-13T04:48:32;10.20;99.90
51035;DHT22;37062;52.546;13.230;2023-02-13T04:51:00;10.20;99.90
51035;DHT22;37062;52.546;13.230;2023-02-13T04:53:28;10.10;99.90
51035;DHT22;37062;52.546;13.230;2023-02-13T04:55:56;10.10;99.90
51035;DHT22;37062;52.546;13.230;2023-02-13T04:58:24;10.10;99.90
51035;DHT22;37062;52.546;13.230;2023-02-13T05:00:54;10.10;99.90
51035;DHT22;37062;52.546;13.230;2023-02-13T05:03:22;10.10;99.90
51035;DHT22;37062;52.546;13.230;2023-02-13T05:05:51;10.10;99.90
51035;DHT22;37062;52.546;13.230;2023-02-13T05:08:19;10.10;99.90
51035;DHT22;37062;52.546;13.230;2023-02-13T05:10:47;10.10;99.90
51035;DHT22;37062;52.546;13.230;2023-02-13T05:13:15;10.20;99.90
51035;DHT22;37062;52.546;13.230;2023-02-13T05:15:47;10.10;99.90
51035;DHT22;37062;52.546;13.230;2023-02-13T05:18:17;10.10;99.90
51035;DHT22;37062;52.546;13.230;2023-02-13T05:20:45;10.10;99.90
51035;DHT22;37062;52.546;13.230;2023-02-13T05:23:40;10.10;99.90
51035;DHT22;37062;52.546;13.230;2023-02-13T05:26:07;10.10;99.90
51035;DHT22;37062;52.546;13.230;2023-02-13T05:28:35;10.10;99.90
51035;DHT22;37062;52.546;13.230;2023-02-13T05:31:21;10.20;99.90
51035;DHT22;37062;52.546;13.230;2023-02-13T05:33:51;10.20;99.90
51035;DHT22;37062;52.546;13.230;2023-02-13T05:36:19;10.20;99.90
51035;DHT22;37062;52.546;13.230;2023-02-13T05:38:47;10.20;99.90
51035;DHT22;37062;52.546;13.230;2023-02-13T05:41:15;10.10;99.90
51035;DHT22;37062;52.546;13.230;2023-02-13T05:43:43;10.10;99.90
51035;DHT22;37062;52.546;13.230;2023-02-13T05:46:11;10.10;99.90
51035;DHT22;37062;52.546;13.230;2023-02-13T05:48:40;10.10;99.90
51035;DHT22;37062;52.546;13.230;2023-02-13T05:51:09;10.20;99.90
51035;DHT22;37062;52.546;13.230;2023-02-13T05:53:38;10.20;99.90
51035;DHT22;37062;52.546;13.230;2023-02-13T05:56:06;10.20;99.90
51035;DHT22;37062;52.546;13.230;2023-02-13T05:58:35;10.20;99.90
51035;DHT22;37062;52.546;13.230;2023-02-13T06:01:03;10.20;99.90
51035;DHT22;37062;52.546;13.230;2023-02-13T06:03:32;10.20;99.90
51035;DHT22;37062;52.546;13.230;2023-02-13T06:06:00;10.20;99.90
51035;DHT22;37062;52.546;13.230;2023-02-13T06:08:30;10.20;99.90
51035;DHT22;37062;52.546;13.230;2023-02-13T06:10:58;10.20;99.90
51035;DHT22;37062;52.546;13.230;2023-02-13T06:13:27;10.20;99.90
51035;DHT22;37062;52.546;13.230;2023-02-13T06:15:55;10.20;99.90
51035;DHT22;37062;52.546;13.230;2023-02-13T06:18:23;10.10;99.90
51035;DHT22;37062;52.546;13.230;2023-02-13T06:20:51;10.10;99.90
51035;DHT22;37062;52.546;13.230;2023-02-13T06:23:20;10.20;99.90
51035;DHT22;37062;52.546;13.230;2023-02-13T06:25:49;10.20;99.90
51035;DHT22;37062;52.546;13.230;2023-02-13T06:28:17;10.20;99.90
51035;DHT22;37062;52.546;13.230;2023-02-13T06:30:46;10.20;99.90
51035;DHT22;37062;52.546;13.230;2023-02-13T06:33:14;10.20;99.90
51035;DHT22;37062;52.546;13.230;2023-02-13T06:35:43;10.20;99.90
51035;DHT22;37062;52.546;13.230;2023-02-13T06:38:11;10.20;99.90
51035;DHT22;37062;52.546;13.230;2023-02-13T06:40:39;10.10;99.90
51035;DHT22;37062;52.546;13.230;2023-02-13T06:43:10;10.20;99.90
51035;DHT22;37062;52.546;13.230;2023-02-13T06:45:38;10.20;99.90
51035;DHT22;37062;52.546;13.230;2023-02-13T06:48:06;10.20;99.90
51035;DHT22;37062;52.546;13.230;2023-02-13T06:50:35;10.20;99.90
51035;DHT22;37062;52.546;13.230;2023-02-13T06:53:03;10.20;99.90
51035;DHT22;37062;52.546;13.230;2023-02-13T06:55:31;10.20;99.90
51035;DHT22;37062;52.546;13.230;2023-02-13T06:57:59;10.20;99.90
51035;DHT22;37062;52.546;13.230;2023-02-13T07:00:29;10.30;99.90
51035;DHT22;37062;52.546;13.230;2023-02-13T07:03:01;10.30;99.90
51035;DHT22;37062;52.546;13.230;2023-02-13T07:05:30;10.30;99.90
51035;DHT22;37062;52.546;13.230;2023-02-13T07:07:58;10.30;99.90
51035;DHT22;37062;52.546;13.230;2023-02-13T07:10:26;10.30;99.90
51035;DHT22;37062;52.546;13.230;2023-02-13T07:12:54;10.20;99.90
51035;DHT22;37062;52.546;13.230;2023-02-13T07:15:34;10.20;99.90
51035;DHT22;37062;52.546;13.230;2023-02-13T07:18:02;10.20;99.90
51035;DHT22;37062;52.546;13.230;2023-02-13T07:20:31;10.20;99.90
51035;DHT22;37062;52.546;13.230;2023-02-13T07:23:00;10.30;99.90
51035;DHT22;37062;52.546;13.230;2023-02-13T07:25:29;10.30;99.90
51035;DHT22;37062;52.546;13.230;2023-02-13T07:28:00;10.40;99.90
51035;DHT22;37062;52.546;13.230;2023-02-13T07:30:30;10.40;99.90
51035;DHT22;37062;52.546;13.230;2023-02-13T07:33:01;10.30;99.90
51035;DHT22;37062;52.546;13.230;2023-02-13T07:35:29;10.40;99.90
51035;DHT22;37062;52.546;13.230;2023-02-13T07:37:58;10.40;99.90
51035;DHT22;37062;52.546;13.230;2023-02-13T07:40:27;10.40;99.90
51035;DHT22;37062;52.546;13.230;2023-02-13T07:42:55;10.50;99.90
51035;DHT22;37062;52.546;13.230;2023-02-13T07:45:23;10.50;99.90
51035;DHT22;37062;52.546;13.230;2023-02-13T07:47:54;10.40;99.90
51035;DHT22;37062;52.546;13.230;2023-02-13T07:50:23;10.40;99.90
51035;DHT22;37062;52.546;13.230;2023-02-13T07:52:55;10.40;99.90
51035;DHT22;37062;52.546;13.230;2023-02-13T07:55:24;10.40;99.90
51035;DHT22;37062;52.546;13.230;2023-02-13T07:57:53;10.40;99.90
51035;DHT22;37062;52.546;13.230;2023-02-13T08:00:22;10.50;99.90
51035;DHT22;37062;52.546;13.230;2023-02-13T08:02:50;10.50;99.90
51035;DHT22;37062;52.546;13.230;2023-02-13T08:05:18;10.40;99.90
51035;DHT22;37062;52.546;13.230;2023-02-13T08:07:47;10.50;99.90
51035;DHT22;37062;52.546;13.230;2023-02-13T08:10:16;10.50;99.90
51035;DHT22;37062;52.546;13.230;2023-02-13T08:13:02;10.50;99.90
51035;DHT22;37062;52.546;13.230;2023-02-13T08:15:31;10.50;99.90
51035;DHT22;37062;52.546;13.230;2023-02-13T08:18:00;10.50;99.90
51035;DHT22;37062;52.546;13.230;2023-02-13T08:20:28;10.50;99.90
51035;DHT22;37062;52.546;13.230;2023-02-13T08:23:03;10.50;99.90
51035;DHT22;37062;52.546;13.230;2023-02-13T08:25:32;10.60;99.90
51035;DHT22;37062;52.546;13.230;2023-02-13T08:28:00;10.50;99.90
51035;DHT22;37062;52.546;13.230;2023-02-13T08:30:28;10.50;99.90
51035;DHT22;37062;52.546;13.230;2023-02-13T08:32:57;10.60;99.90
51035;DHT22;37062;52.546;13.230;2023-02-13T08:35:25;10.60;99.90
51035;DHT22;37062;52.546;13.230;2023-02-13T08:37:55;10.60;99.90
51035;DHT22;37062;52.546;13.230;2023-02-13T08:40:25;10.60;99.90
51035;DHT22;37062;52.546;13.230;2023-02-13T08:42:58;10.70;99.90
51035;DHT22;37062;52.546;13.230;2023-02-13T08:45:28;10.70;99.90
51035;DHT22;37062;52.546;13.230;2023-02-13T08:47:57;10.70;99.90
51035;DHT22;37062;52.546;13.230;2023-02-13T08:50:26;10.80;99.90
51035;DHT22;37062;52.546;13.230;2023-02-13T08:52:55;10.80;99.90
51035;DHT22;37062;52.546;13.230;2023-02-13T08:55:26;10.80;99.90
51035;DHT22;37062;52.546;13.230;2023-02-13T08:57:58;10.80;99.90
51035;DHT22;37062;52.546;13.230;2023-02-13T09:00:26;10.80;99.90
51035;DHT22;37062;52.546;13.230;2023-02-13T09:02:55;10.90;99.90
51035;DHT22;37062;52.546;13.230;2023-02-13T09:05:27;10.90;99.90
51035;DHT22;37062;52.546;13.230;2023-02-13T09:07:55;10.90;99.90
51035;DHT22;37062;52.546;13.230;2023-02-13T09:10:23;10.90;99.90
51035;DHT22;37062;52.546;13.230;2023-02-13T09:12:53;10.90;99.90
51035;DHT22;37062;52.546;13.230;2023-02-13T09:15:21;10.80;99.90
51035;DHT22;37062;52.546;13.230;2023-02-13T09:17:50;10.90;99.90
51035;DHT22;37062;52.546;13.230;2023-02-13T09:20:18;10.90;99.90
51035;DHT22;37062;52.546;13.230;2023-02-13T09:22:46;10.90;99.90
51035;DHT22;37062;52.546;13.230;2023-02-13T09:25:14;11.00;99.90
51035;DHT22;37062;52.546;13.230;2023-02-13T09:27:43;11.00;99.90
51035;DHT22;37062;52.546;13.230;2023-02-13T09:30:13;11.00;99.90
51035;DHT22;37062;52.546;13.230;2023-02-13T09:32:49;11.00;99.90
51035;DHT22;37062;52.546;13.230;2023-02-13T09:35:42;11.00;99.90
51035;DHT22;37062;52.546;13.230;2023-02-13T09:38:11;11.00;99.90
51035;DHT22;37062;52.546;13.230;2023-02-13T09:40:44;11.00;99.90
51035;DHT22;37062;52.546;13.230;2023-02-13T09:43:16;11.00;99.90
51035;DHT22;37062;52.546;13.230;2023-02-13T09:45:46;11.00;99.90
51035;DHT22;37062;52.546;13.230;2023-02-13T09:48:24;11.10;99.90
51035;DHT22;37062;52.546;13.230;2023-02-13T09:50:54;11.10;99.90
51035;DHT22;37062;52.546;13.230;2023-02-13T09:53:25;11.20;99.90
51035;DHT22;37062;52.546;13.230;2023-02-13T09:56:06;11.20;99.90
51035;DHT22;37062;52.546;13.230;2023-02-13T09:58:43;11.30;99.90
51035;DHT22;37062;52.546;13.230;2023-02-13T10:01:25;11.30;99.90
51035;DHT22;37062;52.546;13.230;2023-02-13T10:04:11;11.30;99.90
51035;DHT22;37062;52.546;13.230;2023-02-13T10:06:43;11.30;99.90
51035;DHT22;37062;52.546;13.230;2023-02-13T10:09:26;11.30;99.90
51035;DHT22;37062;52.546;13.230;2023-02-13T10:12:12;11.30;99.90
51035;DHT22;37062;52.546;13.230;2023-02-13T10:14:48;11.30;99.90
51035;DHT22;37062;52.546;13.230;2023-02-13T10:17:25;11.40;99.90
51035;DHT22;37062;52.546;13.230;2023-02-13T10:19:59;11.40;99.90
51035;DHT22;37062;52.546;13.230;2023-02-13T10:22:32;11.40;99.90
51035;DHT22;37062;52.546;13.230;2023-02-13T10:25:03;11.40;99.90
51035;DHT22;37062;52.546;13.230;2023-02-13T10:27:34;11.50;99.90
51035;DHT22;37062;52.546;13.230;2023-02-13T10:30:07;11.50;99.90
51035;DHT22;37062;52.546;13.230;2023-02-13T10:32:53;11.60;99.90
51035;DHT22;37062;52.546;13.230;2023-02-13T10:35:37;11.50;99.90
51035;DHT22;37062;52.546;13.230;2023-02-13T10:38:14;11.40;99.90
51035;DHT22;37062;52.546;13.230;2023-02-13T10:41:14;11.40;99.90
51035;DHT22;37062;52.546;13.230;2023-02-13T10:44:05;11.40;99.90
51035;DHT22;37062;52.546;13.230;2023-02-13T10:46:43;11.50;99.90
51035;DHT22;37062;52.546;13.230;2023-02-13T10:49:32;11.60;99.90
51035;DHT22;37062;52.546;13.230;2023-02-13T10:52:11;11.70;99.90
51035;DHT22;37062;52.546;13.230;2023-02-13T10:54:59;11.60;99.90
51035;DHT22;37062;52.546;13.230;2023-02-13T10:57:38;11.60;99.90
51035;DHT22;37062;52.546;13.230;2023-02-13T11:00:14;11.50;99.90
51035;DHT22;37062;52.546;13.230;2023-02-13T11:02:45;11.50;99.90
51035;DHT22;37062;52.546;13.230;2023-02-13T11:05:18;11.50;99.90
51035;DHT22;37062;52.546;13.230;2023-02-13T11:07:48;11.40;99.90
51035;DHT22;37062;52.546;13.230;2023-02-13T11:10:19;11.50;99.90
51035;DHT22;37062;52.546;13.230;2023-02-13T11:12:48;11.50;99.90
51035;DHT22;37062;52.546;13.230;2023-02-13T11:15:23;11.50;99.90
51035;DHT22;37062;52.546;13.230;2023-02-13T11:17:53;11.50;99.90
51035;DHT22;37062;52.546;13.230;2023-02-13T11:20:32;11.60;99.90
51035;DHT22;37062;52.546;13.230;2023-02-13T11:23:31;11.70;99.90
51035;DHT22;37062;52.546;13.230;2023-02-13T11:26:05;11.70;99.90
51035;DHT22;37062;52.546;13.230;2023-02-13T11:28:37;11.50;99.90
51035;DHT22;37062;52.546;13.230;2023-02-13T11:31:19;11.40;99.90
51035;DHT22;37062;52.546;13.230;2023-02-13T11:33:48;11.50;99.90
51035;DHT22;37062;52.546;13.230;2023-02-13T11:36:24;11.40;99.90
51035;DHT22;37062;52.546;13.230;2023-02-13T11:39:00;11.30;99.90
51035;DHT22;37062;52.546;13.230;2023-02-13T11:41:30;11.30;99.90
51035;DHT22;37062;52.546;13.230;2023-02-13T11:44:00;11.40;99.90
51035;DHT22;37062;52.546;13.230;2023-02-13T11:46:42;11.50;99.90
51035;DHT22;37062;52.546;13.230;2023-02-13T11:49:18;11.50;99.90
51035;DHT22;37062;52.546;13.230;2023-02-13T11:51:50;11.60;99.90
51035;DHT22;37062;52.546;13.230;2023-02-13T11:54:25;11.60;99.90
51035;DHT22;37062;52.546;13.230;2023-02-13T11:56:56;11.60;99.90
51035;DHT22;37062;52.546;13.230;2023-02-13T11:59:37;11.60;99.90
51035;DHT22;37062;52.546;13.230;2023-02-13T12:02:15;11.70;99.90
51035;DHT22;37062;52.546;13.230;2023-02-13T12:04:44;11.80;99.90
51035;DHT22;37062;52.546;13.230;2023-02-13T12:07:17;11.80;99.90
51035;DHT22;37062;52.546;13.230;2023-02-13T12:09:48;11.90;99.90
51035;DHT22;37062;52.546;13.230;2023-02-13T12:12:22;12.00;99.90
51035;DHT22;37062;52.546;13.230;2023-02-13T12:14:52;12.00;99.90
51035;DHT22;37062;52.546;13.230;2023-02-13T12:17:22;11.90;99.90
51035;DHT22;37062;52.546;13.230;2023-02-13T12:19:58;12.00;99.90
51035;DHT22;37062;52.546;13.230;2023-02-13T12:22:39;12.10;99.90
51035;DHT22;37062;52.546;13.230;2023-02-13T12:25:26;12.10;99.90
51035;DHT22;37062;52.546;13.230;2023-02-13T12:28:14;12.10;99.90
51035;DHT22;37062;52.546;13.230;2023-02-13T12:31:15;12.00;99.90
51035;DHT22;37062;52.546;13.230;2023-02-13T12:34:24;11.90;99.90
51035;DHT22;37062;52.546;13.230;2023-02-13T12:37:15;11.90;99.90
51035;DHT22;37062;52.546;13.230;2023-02-13T12:39:57;11.90;99.90
51035;DHT22;37062;52.546;13.230;2023-02-13T12:42:37;11.70;99.90
51035;DHT22;37062;52.546;13.230;2023-02-13T12:48:21;11.60;99.90
51035;DHT22;37062;52.546;13.230;2023-02-13T12:51:00;11.70;99.90
51035;DHT22;37062;52.546;13.230;2023-02-13T12:53:57;11.70;99.90
51035;DHT22;37062;52.546;13.230;2023-02-13T12:56:55;11.50;99.90
51035;DHT22;37062;52.546;13.230;2023-02-13T12:59:35;11.40;99.90
51035;DHT22;37062;52.546;13.230;2023-02-13T13:02:27;11.40;99.90
51035;DHT22;37062;52.546;13.230;2023-02-13T13:05:06;11.30;99.90
51035;DHT22;37062;52.546;13.230;2023-02-13T13:08:04;11.10;99.90
51035;DHT22;37062;52.546;13.230;2023-02-13T13:10:42;11.30;99.90
51035;DHT22;37062;52.546;13.230;2023-02-13T13:13:25;11.30;99.90
51035;DHT22;37062;52.546;13.230;2023-02-13T13:16:00;11.50;99.90
51035;DHT22;37062;52.546;13.230;2023-02-13T13:18:39;11.30;99.90
51035;DHT22;37062;52.546;13.230;2023-02-13T13:21:18;11.10;99.90
51035;DHT22;37062;52.546;13.230;2023-02-13T13:23:53;11.20;99.90
51035;DHT22;37062;52.546;13.230;2023-02-13T13:26:31;11.30;99.90
51035;DHT22;37062;52.546;13.230;2023-02-13T13:29:06;11.40;99.90
51035;DHT22;37062;52.546;13.230;2023-02-13T13:31:38;11.40;99.90
51035;DHT22;37062;52.546;13.230;2023-02-13T13:34:13;11.40;99.90
51035;DHT22;37062;52.546;13.230;2023-02-13T13:36:46;11.40;99.90
51035;DHT22;37062;52.546;13.230;2023-02-13T13:39:26;11.40;99.90
51035;DHT22;37062;52.546;13.230;2023-02-13T13:42:04;11.40;99.90
51035;DHT22;37062;52.546;13.230;2023-02-13T13:47:40;11.30;99.90
51035;DHT22;37062;52.546;13.230;2023-02-13T13:50:19;11.20;99.90
51035;DHT22;37062;52.546;13.230;2023-02-13T13:53:10;11.10;99.90
51035;DHT22;37062;52.546;13.230;2023-02-13T13:56:06;10.90;99.90
51035;DHT22;37062;52.546;13.230;2023-02-13T13:58:41;10.90;99.90
51035;DHT22;37062;52.546;13.230;2023-02-13T14:01:25;10.90;99.90
51035;DHT22;37062;52.546;13.230;2023-02-13T14:03:56;11.00;99.90
51035;DHT22;37062;52.546;13.230;2023-02-13T14:06:26;11.10;99.90
51035;DHT22;37062;52.546;13.230;2023-02-13T14:08:58;11.10;99.90
51035;DHT22;37062;52.546;13.230;2023-02-13T14:11:33;11.10;99.90
51035;DHT22;37062;52.546;13.230;2023-02-13T14:14:07;11.20;99.90
51035;DHT22;37062;52.546;13.230;2023-02-13T14:16:51;11.10;99.90
51035;DHT22;37062;52.546;13.230;2023-02-13T14:19:25;11.10;99.90
51035;DHT22;37062;52.546;13.230;2023-02-13T14:21:54;11.10;99.90
51035;DHT22;37062;52.546;13.230;2023-02-13T14:24:48;11.10;99.90
51035;DHT22;37062;52.546;13.230;2023-02-13T14:27:20;11.20;99.90
51035;DHT22;37062;52.546;13.230;2023-02-13T14:29:49;11.20;99.90
51035;DHT22;37062;52.546;13.230;2023-02-13T14:32:22;11.20;99.90
51035;DHT22;37062;52.546;13.230;2023-02-13T14:34:57;11.10;99.90
51035;DHT22;37062;52.546;13.230;2023-02-13T14:37:35;11.20;99.90
51035;DHT22;37062;52.546;13.230;2023-02-13T14:40:27;11.20;99.90
51035;DHT22;37062;52.546;13.230;2023-02-13T14:42:59;11.20;99.90
51035;DHT22;37062;52.546;13.230;2023-02-13T14:45:30;11.20;99.90
51035;DHT22;37062;52.546;13.230;2023-02-13T14:48:05;11.10;99.90
51035;DHT22;37062;52.546;13.230;2023-02-13T14:50:42;11.20;99.90
51035;DHT22;37062;52.546;13.230;2023-02-13T14:53:20;11.20;99.90
51035;DHT22;37062;52.546;13.230;2023-02-13T14:55:56;11.10;99.90
51035;DHT22;37062;52.546;13.230;2023-02-13T14:58:28;11.10;99.90
51035;DHT22;37062;52.546;13.230;2023-02-13T15:01:04;11.00;99.90
51035;DHT22;37062;52.546;13.230;2023-02-13T15:03:37;11.10;99.90
51035;DHT22;37062;52.546;13.230;2023-02-13T15:06:13;11.10;99.90
51035;DHT22;37062;52.546;13.230;2023-02-13T15:08:47;11.10;99.90
51035;DHT22;37062;52.546;13.230;2023-02-13T15:11:32;11.20;99.90
51035;DHT22;37062;52.546;13.230;2023-02-13T15:14:21;11.20;99.90
51035;DHT22;37062;52.546;13.230;2023-02-13T15:16:57;11.10;99.90
51035;DHT22;37062;52.546;13.230;2023-02-13T15:19:28;11.00;99.90
51035;DHT22;37062;52.546;13.230;2023-02-13T15:21:58;11.10;99.90
51035;DHT22;37062;52.546;13.230;2023-02-13T15:24:31;11.10;99.90
51035;DHT22;37062;52.546;13.230;2023-02-13T15:27:03;11.10;99.90
51035;DHT22;37062;52.546;13.230;2023-02-13T15:29:32;11.10;99.90
51035;DHT22;37062;52.546;13.230;2023-02-13T15:32:19;11.10;99.90
51035;DHT22;37062;52.546;13.230;2023-02-13T15:34:49;11.20;99.90
51035;DHT22;37062;52.546;13.230;2023-02-13T15:37:22;11.20;99.90
51035;DHT22;37062;52.546;13.230;2023-02-13T15:39:50;11.30;99.90
51035;DHT22;37062;52.546;13.230;2023-02-13T15:42:19;11.30;99.90
51035;DHT22;37062;52.546;13.230;2023-02-13T15:44:57;11.30;99.90
51035;DHT22;37062;52.546;13.230;2023-02-13T15:47:27;11.20;99.90
51035;DHT22;37062;52.546;13.230;2023-02-13T15:49:58;11.20;99.90
51035;DHT22;37062;52.546;13.230;2023-02-13T15:52:30;11.10;99.90
51035;DHT22;37062;52.546;13.230;2023-02-13T15:54:59;11.00;99.90
51035;DHT22;37062;52.546;13.230;2023-02-13T15:57:28;11.10;99.90
51035;DHT22;37062;52.546;13.230;2023-02-13T15:59:58;11.10;99.90
51035;DHT22;37062;52.546;13.230;2023-02-13T16:02:41;11.10;99.90
51035;DHT22;37062;52.546;13.230;2023-02-13T16:05:14;11.10;99.90
51035;DHT22;37062;52.546;13.230;2023-02-13T16:08:25;11.10;99.90
51035;DHT22;37062;52.546;13.230;2023-02-13T16:11:16;11.10;99.90